Galchutt, North Dakota
Current Conditions -  °F | °C
As of 10:35 PM on Friday 24 Oct 2014 (Local Time) from KBWP Reporting Station
Broken Clouds Broken Clouds  
Wind Chill: 57°   Ceiling: 12000
Heat Index: 57°   Visibility: 10mi
Dew Point: 32°   Wind: 9mph
Humidity: 38%   Direction: 280°W
Pressure: 29.94"   Gusts: NA
Location:  46.3099°N, 96.7867°W
Report Text: KBWP 250335Z AUTO 28008KT 10SM BKN120 14/00 A2994 RMK AO1
Loading
Personal Weather Stations






























Interactive Weather Map
Tropical Storm Tracking
New forecast layout! Learn more

10-Day Weather Forecast

Advertisements
Track Severe Weather on mobile